createdAt,value
2022-09-23T00:01:26.919Z,155.30
2022-09-23T00:06:23.893Z,176.38
2022-09-23T00:08:52.391Z,138.10
2022-09-23T00:11:29.781Z,184.50
2022-09-23T00:13:59.851Z,206.32
2022-09-23T00:16:34.278Z,209.13
2022-09-23T00:19:03.176Z,173.30
2022-09-23T00:21:31.180Z,198.57
2022-09-23T00:28:55.166Z,130.23
2022-09-23T00:31:26.253Z,165.52
2022-09-23T00:33:59.441Z,150.45
2022-09-23T00:36:30.556Z,166.30
2022-09-23T00:38:58.753Z,152.32
2022-09-23T00:41:27.465Z,157.85
2022-09-23T00:43:58.536Z,83.95
2022-09-23T00:46:44.446Z,174.73
2022-09-23T00:49:29.500Z,150.43
2022-09-23T00:52:07.364Z,121.75
2022-09-23T00:59:33.749Z,101.60
2022-09-23T01:02:03.641Z,111.82
2022-09-23T01:04:32.188Z,162.75
2022-09-23T01:07:00.376Z,119.15
2022-09-23T01:12:07.739Z,80.38
2022-09-23T01:15:00.508Z,143.07
2022-09-23T01:17:50.510Z,74.88
2022-09-23T01:20:55.934Z,97.03
2022-09-23T01:24:02.514Z,61.35
2022-09-23T01:27:04.078Z,72.55
2022-09-23T01:29:41.202Z,62.85
2022-09-23T01:32:35.608Z,89.35
2022-09-23T01:35:21.339Z,80.82
2022-09-23T01:38:03.708Z,86.43
2022-09-23T01:40:40.762Z,74.15
2022-09-23T01:43:11.859Z,99.82
2022-09-23T01:45:44.565Z,67.07
2022-09-23T01:48:14.069Z,95.18
2022-09-23T01:50:58.461Z,86.25
2022-09-23T01:53:51.371Z,95.35
2022-09-23T01:56:30.506Z,102.22
2022-09-23T01:59:31.205Z,88.18
2022-09-23T02:02:19.412Z,112.25
2022-09-23T02:05:03.834Z,80.72
2022-09-23T02:07:41.789Z,84.00
2022-09-23T02:10:24.492Z,116.28
2022-09-23T02:12:57.347Z,94.10
2022-09-23T02:15:31.846Z,96.07
2022-09-23T02:18:17.239Z,126.03
2022-09-23T02:20:47.341Z,97.82
2022-09-23T02:23:29.977Z,101.68
2022-09-23T02:26:08.899Z,105.05
2022-09-23T02:28:48.614Z,125.25
2022-09-23T02:31:34.824Z,126.05
2022-09-23T02:34:05.054Z,107.63
2022-09-23T02:36:47.109Z,94.55
2022-09-23T02:39:15.219Z,123.05
2022-09-23T02:44:20.319Z,87.22
2022-09-23T02:46:52.548Z,95.68
2022-09-23T02:49:29.744Z,107.57
2022-09-23T02:52:00.431Z,87.60
2022-09-23T02:54:29.258Z,87.43
2022-09-23T02:56:57.704Z,99.25
2022-09-23T02:59:25.224Z,86.93
2022-09-23T03:01:54.500Z,99.35
2022-09-23T03:04:31.684Z,85.43
2022-09-23T03:07:08.279Z,125.00
2022-09-23T03:09:38.825Z,98.90
2022-09-23T03:12:12.436Z,98.10
2022-09-23T03:14:53.691Z,99.03
2022-09-23T03:17:54.633Z,102.45
2022-09-23T03:20:22.613Z,97.00
2022-09-23T03:22:56.903Z,93.53
2022-09-23T03:25:27.160Z,89.07
2022-09-23T03:28:01.618Z,98.43
2022-09-23T03:30:31.522Z,113.28
2022-09-23T03:33:01.077Z,97.50
2022-09-23T03:35:31.542Z,98.63
2022-09-23T03:38:17.769Z,80.18
2022-09-23T03:40:51.134Z,99.40
2022-09-23T03:43:19.706Z,93.60
2022-09-23T03:45:47.625Z,80.55
2022-09-23T03:50:43.484Z,68.28
2022-09-23T03:53:14.235Z,72.47
2022-09-23T03:55:41.691Z,89.28
2022-09-23T03:58:09.289Z,80.63
2022-09-23T04:00:37.501Z,51.28
2022-09-23T04:03:09.535Z,50.88
2022-09-23T04:05:39.537Z,55.40
2022-09-23T04:08:07.215Z,69.28
2022-09-23T04:10:35.248Z,85.00
2022-09-23T04:13:03.149Z,70.10
2022-09-23T04:15:30.940Z,63.63
2022-09-23T04:17:59.729Z,64.68
2022-09-23T04:20:28.995Z,76.72
2022-09-23T04:22:57.025Z,68.18
2022-09-23T04:25:24.790Z,55.88
2022-09-23T04:27:52.898Z,70.93
2022-09-23T04:30:21.029Z,82.78
2022-09-23T04:32:49.041Z,71.97
2022-09-23T04:35:16.878Z,85.85
2022-09-23T04:37:47.414Z,76.82
2022-09-23T04:40:15.228Z,75.20
2022-09-23T04:42:43.175Z,84.40
2022-09-23T04:45:11.330Z,88.47
2022-09-23T04:50:07.554Z,71.20
2022-09-23T04:52:35.460Z,75.65
2022-09-23T04:55:03.024Z,81.78
2022-09-23T04:57:31.053Z,78.13
2022-09-23T04:59:59.023Z,68.30
2022-09-23T05:02:28.374Z,64.32
2022-09-23T05:04:56.319Z,58.70
2022-09-23T05:07:24.554Z,68.70
2022-09-23T05:09:52.104Z,67.18
2022-09-23T05:12:20.213Z,82.97
2022-09-23T05:14:48.061Z,82.85
2022-09-23T05:17:15.970Z,139.55
2022-09-23T05:19:43.931Z,141.85
2022-09-23T05:22:12.067Z,93.40
2022-09-23T05:27:08.044Z,80.15
2022-09-23T05:29:36.178Z,70.80
2022-09-23T05:34:32.365Z,82.38
2022-09-23T05:36:59.955Z,121.05
2022-09-23T05:39:27.583Z,70.28
2022-09-23T05:41:55.683Z,46.38
2022-09-23T05:46:50.758Z,71.20
2022-09-23T05:49:18.429Z,52.58
2022-09-23T05:51:46.512Z,82.00
2022-09-23T05:56:42.337Z,88.97
2022-09-23T05:59:10.388Z,71.60
2022-09-23T06:01:38.665Z,30.08
2022-09-23T06:04:08.240Z,58.63
2022-09-23T06:06:41.689Z,38.58
2022-09-23T06:09:13.773Z,74.45
2022-09-23T06:11:42.781Z,65.35
2022-09-23T06:14:13.271Z,75.90
2022-09-23T06:16:41.379Z,72.55
2022-09-23T06:21:40.452Z,73.72
2022-09-23T06:24:09.381Z,68.25
2022-09-23T06:26:38.306Z,56.15
2022-09-23T06:29:12.409Z,49.22
2022-09-23T06:31:41.599Z,69.95
2022-09-23T06:34:14.591Z,73.43
2022-09-23T06:36:45.501Z,65.97
2022-09-23T06:39:15.008Z,48.45
2022-09-23T06:41:43.568Z,36.22
2022-09-23T06:44:15.159Z,55.55
2022-09-23T06:46:44.538Z,44.00
2022-09-23T06:49:13.065Z,55.85
2022-09-23T06:51:41.455Z,57.42
2022-09-23T06:54:09.674Z,57.10
2022-09-23T06:56:39.732Z,53.67
2022-09-23T06:59:10.928Z,52.33
2022-09-23T07:01:39.194Z,47.75
2022-09-23T07:04:07.944Z,73.18
2022-09-23T07:06:36.318Z,69.57
2022-09-23T07:09:05.043Z,55.63
2022-09-23T07:11:33.059Z,54.95
2022-09-23T07:16:28.646Z,36.75
2022-09-23T07:21:24.418Z,43.58
2022-09-23T07:23:52.723Z,50.33
2022-09-23T07:26:21.182Z,55.13
2022-09-23T07:28:54.531Z,51.55
2022-09-23T07:31:35.690Z,42.03
2022-09-23T07:34:08.527Z,31.85
2022-09-23T07:36:40.835Z,40.17
2022-09-23T07:39:12.272Z,43.45
2022-09-23T07:41:41.847Z,43.83
2022-09-23T07:44:11.313Z,39.15
2022-09-23T07:46:40.123Z,47.33
2022-09-23T07:49:08.581Z,44.17
2022-09-23T07:51:38.397Z,37.58
2022-09-23T07:54:10.068Z,43.30
2022-09-23T07:56:38.905Z,32.60
2022-09-23T07:59:08.875Z,16.77
2022-09-23T08:01:39.922Z,41.38
2022-09-23T08:04:17.838Z,24.70
2022-09-23T08:09:21.290Z,24.25
2022-09-23T08:11:50.919Z,18.33
2022-09-23T08:14:19.295Z,15.65
2022-09-23T08:16:47.748Z,21.80
2022-09-23T08:19:17.899Z,33.00
2022-09-23T08:21:52.179Z,29.20
2022-09-23T08:24:22.110Z,28.48
2022-09-23T08:26:51.442Z,30.35
2022-09-23T08:29:21.590Z,23.48
2022-09-23T08:31:50.207Z,16.38
2022-09-23T08:34:19.999Z,21.60
2022-09-23T08:36:48.287Z,22.33
2022-09-23T08:39:17.989Z,20.88
2022-09-23T08:42:13.403Z,22.90
2022-09-23T08:44:50.804Z,16.67
2022-09-23T08:47:24.945Z,11.57
2022-09-23T08:50:07.557Z,18.35
2022-09-23T08:52:43.725Z,10.50
2022-09-23T08:55:15.472Z,10.32
2022-09-23T08:58:23.274Z,18.15
2022-09-23T09:00:55.074Z,9.63
2022-09-23T09:03:36.758Z,10.57
2022-09-23T09:06:05.109Z,11.10
2022-09-23T09:08:37.124Z,14.38
2022-09-23T09:11:08.144Z,11.02
2022-09-23T09:13:52.087Z,15.20
2022-09-23T09:16:59.612Z,13.63
2022-09-23T09:19:55.764Z,15.18
2022-09-23T09:22:48.694Z,13.13
2022-09-23T09:25:40.067Z,9.20
2022-09-23T09:28:45.052Z,4.88
2022-09-23T09:31:14.221Z,8.90
2022-09-23T09:33:58.841Z,14.02
2022-09-23T09:36:37.159Z,9.75
2022-09-23T09:39:05.709Z,7.00
2022-09-23T09:41:33.958Z,8.07
2022-09-23T09:44:08.938Z,11.75
2022-09-23T09:46:45.262Z,7.15
2022-09-23T09:49:24.927Z,16.92
2022-09-23T09:52:13.031Z,12.25
2022-09-23T09:54:40.743Z,5.32
2022-09-23T09:59:44.331Z,7.75
2022-09-23T10:02:34.124Z,17.40
2022-09-23T10:05:08.865Z,7.88
2022-09-23T10:07:38.258Z,10.57
2022-09-23T10:10:32.304Z,12.45
2022-09-23T10:13:17.132Z,18.50
2022-09-23T10:15:45.763Z,11.93
2022-09-23T10:18:25.174Z,7.97
2022-09-23T10:20:59.577Z,6.15
2022-09-23T10:23:29.271Z,9.50
2022-09-23T10:26:03.681Z,8.98
2022-09-23T10:28:48.960Z,9.75
2022-09-23T10:31:34.322Z,8.73
2022-09-23T10:34:25.727Z,9.00
2022-09-23T10:37:06.131Z,10.85
2022-09-23T10:39:55.458Z,8.80
2022-09-23T10:43:08.245Z,9.13
2022-09-23T10:45:59.328Z,4.90
2022-09-23T10:49:02.348Z,9.57
2022-09-23T10:51:46.903Z,8.38
2022-09-23T10:54:32.115Z,8.32
2022-09-23T10:57:29.422Z,14.73
2022-09-23T11:00:08.600Z,6.38
2022-09-23T11:02:54.341Z,6.65
2022-09-23T11:06:01.395Z,9.32
2022-09-23T11:08:41.162Z,6.05
2022-09-23T11:11:54.936Z,7.32
2022-09-23T11:14:51.725Z,7.03
2022-09-23T11:17:48.749Z,6.43
2022-09-23T11:20:41.429Z,5.50
2022-09-23T11:23:46.982Z,10.93
2022-09-23T11:26:47.088Z,6.93
2022-09-23T11:29:17.690Z,7.35
2022-09-23T11:31:47.539Z,3.22
2022-09-23T11:34:54.955Z,4.53
2022-09-23T11:37:53.025Z,5.65
2022-09-23T11:40:35.205Z,11.70
2022-09-23T11:43:18.976Z,4.15
2022-09-23T11:46:31.502Z,7.97
2022-09-23T11:49:09.690Z,4.32
2022-09-23T11:52:10.613Z,3.33
2022-09-23T11:54:54.736Z,6.53
2022-09-23T11:57:51.943Z,2.47
2022-09-23T12:00:22.386Z,8.57
2022-09-23T12:03:01.741Z,10.85
2022-09-23T12:05:40.529Z,7.75
2022-09-23T12:08:26.356Z,9.00
2022-09-23T12:11:16.598Z,8.52
2022-09-23T12:13:59.111Z,6.90
2022-09-23T12:16:29.796Z,11.23
2022-09-23T12:19:21.959Z,4.43
2022-09-23T12:21:59.460Z,3.45
2022-09-23T12:24:39.332Z,2.90
2022-09-23T12:27:11.975Z,4.57
2022-09-23T12:29:41.555Z,5.97
2022-09-23T12:32:18.575Z,9.52
2022-09-23T12:34:50.453Z,13.27
2022-09-23T12:37:38.335Z,10.77
2022-09-23T12:40:16.713Z,3.25
2022-09-23T12:42:46.498Z,5.85
2022-09-23T12:45:32.827Z,3.53
2022-09-23T12:48:03.420Z,3.67
2022-09-23T12:50:56.090Z,5.68
2022-09-23T12:53:36.122Z,5.60
2022-09-23T12:56:23.571Z,5.05
2022-09-23T12:58:51.162Z,4.80
2022-09-23T13:01:23.320Z,5.32
2022-09-23T13:04:15.197Z,2.33
2022-09-23T13:06:58.846Z,4.13
2022-09-23T13:09:30.244Z,3.20
2022-09-23T13:12:04.366Z,2.92
2022-09-23T13:14:33.764Z,3.53
2022-09-23T13:17:01.762Z,3.13
2022-09-23T13:19:31.690Z,4.22
2022-09-23T13:22:07.707Z,3.40
2022-09-23T13:24:47.662Z,4.68
2022-09-23T13:27:20.269Z,3.42
2022-09-23T13:30:05.489Z,3.92
2022-09-23T13:32:37.701Z,3.85
2022-09-23T13:35:18.770Z,4.13
2022-09-23T13:37:47.933Z,7.22
2022-09-23T13:40:27.179Z,3.88
2022-09-23T13:42:59.551Z,6.10
2022-09-23T13:45:28.925Z,6.20
2022-09-23T13:48:06.150Z,4.95
2022-09-23T13:50:38.548Z,4.68
2022-09-23T13:53:10.609Z,6.95
2022-09-23T13:55:40.202Z,1.63
2022-09-23T13:58:20.972Z,3.53
2022-09-23T14:00:51.705Z,5.03
2022-09-23T14:03:26.510Z,4.60
2022-09-23T14:06:04.506Z,4.10
2022-09-23T14:08:32.850Z,4.75
2022-09-23T14:11:01.763Z,4.80
2022-09-23T14:13:32.314Z,2.92
2022-09-23T14:16:03.294Z,3.13
2022-09-23T14:18:38.959Z,4.38
2022-09-23T14:21:25.875Z,4.68
2022-09-23T14:23:53.524Z,2.25
2022-09-23T14:26:24.512Z,4.63
2022-09-23T14:28:52.887Z,4.43
2022-09-23T14:31:20.764Z,5.90
2022-09-23T14:36:37.355Z,4.25
2022-09-23T14:39:16.695Z,4.18
2022-09-23T14:41:45.596Z,3.03
2022-09-23T14:44:26.694Z,2.47
2022-09-23T14:46:58.418Z,5.82
2022-09-23T14:49:27.119Z,3.25
2022-09-23T14:52:00.890Z,3.00
2022-09-23T14:54:40.790Z,4.60
2022-09-23T14:57:22.747Z,2.92
2022-09-23T14:59:56.061Z,2.42
2022-09-23T15:02:39.410Z,1.67
2022-09-23T15:05:21.883Z,2.03
2022-09-23T15:07:58.130Z,4.25
2022-09-23T15:10:34.201Z,5.18
2022-09-23T15:13:15.511Z,4.18
2022-09-23T15:15:44.297Z,8.60
2022-09-23T15:18:18.831Z,3.00
2022-09-23T15:21:10.228Z,2.85
2022-09-23T15:23:58.660Z,3.00
2022-09-23T15:26:41.141Z,11.25
2022-09-23T15:29:10.083Z,7.15
2022-09-23T15:31:37.975Z,6.18
2022-09-23T15:34:06.132Z,6.10
2022-09-23T15:39:03.581Z,5.05
2022-09-23T15:41:33.754Z,1.73
2022-09-23T15:44:29.655Z,6.22
2022-09-23T15:47:01.228Z,4.57
2022-09-23T15:49:34.470Z,5.35
2022-09-23T15:52:04.608Z,5.97
2022-09-23T15:54:33.843Z,3.30
2022-09-23T15:57:02.282Z,2.72
2022-09-23T15:59:33.698Z,1.42
2022-09-23T16:02:06.779Z,7.93
2022-09-23T16:04:36.072Z,4.82
2022-09-23T16:07:05.693Z,1.38
2022-09-23T16:09:33.410Z,5.18
2022-09-23T16:12:03.273Z,6.05
2022-09-23T16:14:31.256Z,5.03
2022-09-23T16:19:27.014Z,8.10
2022-09-23T16:24:27.378Z,5.82
2022-09-23T16:27:00.122Z,2.15
2022-09-23T16:29:28.545Z,2.80
2022-09-23T16:31:56.049Z,3.15
2022-09-23T16:34:23.794Z,4.05
2022-09-23T16:36:52.184Z,4.95
2022-09-23T16:39:20.813Z,2.90
2022-09-23T16:41:48.767Z,7.72
2022-09-23T16:44:16.680Z,5.70
2022-09-23T16:49:12.483Z,2.88
2022-09-23T16:54:13.297Z,3.83
2022-09-23T16:56:46.512Z,2.88
2022-09-23T16:59:15.642Z,6.68
2022-09-23T17:02:02.235Z,7.15
2022-09-23T17:04:30.329Z,5.47
2022-09-23T17:06:58.345Z,3.45
2022-09-23T17:09:28.525Z,3.10
2022-09-23T17:12:26.126Z,6.45
2022-09-23T17:17:22.428Z,1.70
2022-09-23T17:19:50.110Z,5.28
2022-09-23T17:22:17.682Z,5.13
2022-09-23T17:24:45.433Z,2.63
2022-09-23T17:27:13.439Z,5.38
2022-09-23T17:29:41.437Z,6.28
2022-09-23T17:34:37.565Z,4.18
2022-09-23T17:39:33.453Z,6.35
2022-09-23T17:44:32.341Z,2.95
2022-09-23T17:47:00.847Z,4.05
2022-09-23T17:49:29.121Z,2.95
2022-09-23T17:51:57.703Z,8.52
2022-09-23T17:54:25.206Z,7.13
2022-09-23T17:56:53.035Z,5.43
2022-09-23T17:59:20.777Z,5.82
2022-09-23T18:06:44.089Z,3.97
2022-09-23T18:09:12.607Z,7.28
2022-09-23T18:11:43.687Z,4.55
2022-09-23T18:14:22.954Z,6.05
2022-09-23T18:16:53.713Z,3.30
2022-09-23T18:19:23.514Z,6.43
2022-09-23T18:21:54.698Z,6.60
2022-09-23T18:24:33.159Z,8.88
2022-09-23T18:31:59.310Z,4.72
2022-09-23T18:34:28.011Z,5.57
2022-09-23T18:36:56.267Z,3.80
2022-09-23T18:39:24.066Z,4.43
2022-09-23T18:41:51.880Z,7.45
2022-09-23T18:44:20.069Z,6.75
2022-09-23T18:46:47.656Z,6.65
2022-09-23T18:49:34.353Z,5.85
2022-09-23T18:52:02.861Z,4.30
2022-09-23T18:54:31.744Z,8.05
2022-09-23T18:56:59.544Z,5.85
2022-09-23T18:59:29.893Z,5.80
2022-09-23T19:01:57.982Z,5.30
2022-09-23T19:04:27.390Z,7.60
2022-09-23T19:06:56.823Z,8.70
2022-09-23T19:09:25.067Z,5.40
2022-09-23T19:11:53.750Z,6.00
2022-09-23T19:14:22.359Z,6.07
2022-09-23T19:16:50.726Z,7.05
2022-09-23T19:19:18.369Z,5.63
2022-09-23T19:21:46.453Z,5.25
2022-09-23T19:24:20.628Z,7.10
2022-09-23T19:26:48.867Z,5.97
2022-09-23T19:29:19.857Z,11.02
2022-09-23T19:31:48.808Z,3.60
2022-09-23T19:34:23.819Z,6.25
2022-09-23T19:36:53.022Z,6.57
2022-09-23T19:39:23.063Z,7.50
2022-09-23T19:41:52.752Z,5.15
2022-09-23T19:44:20.835Z,5.60
2022-09-23T19:49:25.266Z,8.82
2022-09-23T19:51:56.086Z,3.15
2022-09-23T19:54:26.996Z,6.50
2022-09-23T19:56:54.858Z,8.00
2022-09-23T19:59:22.632Z,11.48
2022-09-23T20:01:50.896Z,7.22
2022-09-23T20:06:46.434Z,9.93
2022-09-23T20:09:14.592Z,10.98
2022-09-23T20:14:13.209Z,6.35
2022-09-23T20:16:41.384Z,7.97
2022-09-23T20:19:10.011Z,10.32
2022-09-23T20:21:37.702Z,9.30
2022-09-23T20:24:07.121Z,9.10
2022-09-23T20:26:54.080Z,20.42
2022-09-23T20:29:21.741Z,13.73
2022-09-23T20:31:49.837Z,8.85
2022-09-23T20:34:18.623Z,9.70
2022-09-23T20:36:46.308Z,8.15
2022-09-23T20:39:14.106Z,9.57
2022-09-23T20:41:42.529Z,11.18
2022-09-23T20:44:14.280Z,11.95
2022-09-23T20:46:48.633Z,13.50
2022-09-23T20:49:17.865Z,13.77
2022-09-23T20:51:48.091Z,14.68
2022-09-23T20:54:19.196Z,17.77
2022-09-23T20:56:47.888Z,13.18
2022-09-23T20:59:17.879Z,16.77
2022-09-23T21:01:47.625Z,16.40
2022-09-23T21:04:15.883Z,14.15
2022-09-23T21:06:43.740Z,20.80
2022-09-23T21:09:11.507Z,15.27
2022-09-23T21:11:39.462Z,21.27
2022-09-23T21:14:07.327Z,21.20
2022-09-23T21:16:36.210Z,21.73
2022-09-23T21:19:04.617Z,23.60
2022-09-23T21:21:32.958Z,25.63
2022-09-23T21:26:50.473Z,24.65
2022-09-23T21:29:18.505Z,26.65
2022-09-23T21:31:48.474Z,23.92
2022-09-23T21:34:16.742Z,24.75
2022-09-23T21:36:46.283Z,30.48
2022-09-23T21:39:14.632Z,23.75
2022-09-23T21:41:42.703Z,27.15
2022-09-23T21:46:38.517Z,23.90
2022-09-23T21:51:39.222Z,25.15
2022-09-23T21:54:15.887Z,21.67
2022-09-23T21:56:44.857Z,17.92
2022-09-23T21:59:14.172Z,18.15
2022-09-23T22:01:45.068Z,19.48
2022-09-23T22:04:19.594Z,21.67
2022-09-23T22:06:49.087Z,24.25
2022-09-23T22:09:19.766Z,15.77
2022-09-23T22:12:08.752Z,19.92
2022-09-23T22:14:37.456Z,17.60
2022-09-23T22:17:06.899Z,22.02
2022-09-23T22:19:40.212Z,14.13
2022-09-23T22:22:15.449Z,19.73
2022-09-23T22:24:44.591Z,18.90
2022-09-23T22:27:16.325Z,22.23
2022-09-23T22:30:02.356Z,19.73
2022-09-23T22:32:43.674Z,19.45
2022-09-23T22:35:13.593Z,15.82
2022-09-23T22:37:41.629Z,21.77
2022-09-23T22:42:41.066Z,26.88
2022-09-23T22:45:10.337Z,15.48
2022-09-23T22:47:39.667Z,15.98
2022-09-23T22:50:09.203Z,21.67
2022-09-23T22:52:38.001Z,19.80
2022-09-23T22:55:08.291Z,24.23
2022-09-23T22:57:36.787Z,20.08
2022-09-23T23:00:06.259Z,15.10
2022-09-23T23:02:34.357Z,11.32
2022-09-23T23:09:59.063Z,22.92
2022-09-23T23:12:26.961Z,25.58
2022-09-23T23:14:54.933Z,27.90
2022-09-23T23:17:22.634Z,16.50
2022-09-23T23:19:50.880Z,13.82
2022-09-23T23:22:18.919Z,16.55
2022-09-23T23:24:46.556Z,18.20
2022-09-23T23:27:14.734Z,15.90
2022-09-23T23:32:10.778Z,13.77
2022-09-23T23:34:38.483Z,21.85
2022-09-23T23:37:07.227Z,22.95
2022-09-23T23:39:35.122Z,24.65
2022-09-23T23:42:04.897Z,24.88
2022-09-23T23:44:34.269Z,22.05
2022-09-23T23:47:02.052Z,20.15
2022-09-23T23:49:29.865Z,21.98
2022-09-23T23:51:57.938Z,22.75
2022-09-23T23:54:25.694Z,20.45
2022-09-23T23:56:53.295Z,19.42
2022-09-23T23:59:21.410Z,19.42
